createdAt,value
2018-08-20T00:02:08.785Z,6.47
2018-08-20T00:04:44.524Z,6.27
2018-08-20T00:07:12.938Z,6.43
2018-08-20T00:09:48.337Z,6.70
2018-08-20T00:12:21.333Z,7.60
2018-08-20T00:17:30.222Z,7.03
2018-08-20T00:20:05.603Z,6.30
2018-08-20T00:22:36.718Z,6.47
2018-08-20T00:25:16.641Z,6.40
2018-08-20T00:27:47.834Z,6.73
2018-08-20T00:30:22.396Z,7.13
2018-08-20T00:32:56.029Z,7.87
2018-08-20T00:35:30.444Z,7.17
2018-08-20T00:38:01.340Z,6.93
2018-08-20T00:40:29.515Z,7.03
2018-08-20T00:42:57.586Z,6.80
2018-08-20T00:45:28.862Z,6.77
2018-08-20T00:47:57.020Z,8.00
2018-08-20T00:50:25.097Z,7.43
2018-08-20T00:52:55.905Z,7.20
2018-08-20T00:55:29.848Z,6.73
2018-08-20T00:57:59.920Z,6.90
2018-08-20T01:00:28.006Z,7.53
2018-08-20T01:03:00.291Z,7.13
2018-08-20T01:05:31.327Z,6.80
2018-08-20T01:08:03.596Z,7.13
2018-08-20T01:10:36.679Z,7.43
2018-08-20T01:13:07.179Z,6.97
2018-08-20T01:15:46.642Z,7.37
2018-08-20T01:18:19.831Z,7.73
2018-08-20T01:20:48.023Z,8.30
2018-08-20T01:23:21.257Z,7.20
2018-08-20T01:25:53.529Z,8.13
2018-08-20T01:28:24.822Z,8.07
2018-08-20T01:30:54.945Z,7.60
2018-08-20T01:33:29.482Z,8.10
2018-08-20T01:35:57.530Z,7.50
2018-08-20T01:38:29.970Z,7.67
2018-08-20T01:41:00.814Z,7.20
2018-08-20T01:43:33.266Z,7.07
2018-08-20T01:46:02.110Z,7.30
2018-08-20T01:48:30.466Z,8.80
2018-08-20T01:50:58.580Z,8.03
2018-08-20T01:53:29.492Z,7.63
2018-08-20T01:55:57.589Z,7.80
2018-08-20T01:58:30.538Z,7.63
2018-08-20T02:00:58.890Z,8.07
2018-08-20T02:03:27.206Z,8.67
2018-08-20T02:05:58.166Z,7.73
2018-08-20T02:08:28.363Z,7.77
2018-08-20T02:10:56.437Z,7.67
2018-08-20T02:13:28.729Z,7.77
2018-08-20T02:15:59.853Z,8.27
2018-08-20T02:18:27.941Z,7.60
2018-08-20T02:20:58.964Z,7.70
2018-08-20T02:23:29.113Z,7.87
2018-08-20T02:25:57.154Z,7.77
2018-08-20T02:28:30.155Z,8.30
2018-08-20T02:30:58.186Z,8.63
2018-08-20T02:33:30.582Z,8.27
2018-08-20T02:35:58.757Z,8.00
2018-08-20T02:38:26.941Z,7.70
2018-08-20T02:40:59.149Z,8.07
2018-08-20T02:43:32.666Z,6.47
2018-08-20T02:46:05.567Z,7.53
2018-08-20T02:48:33.858Z,6.20
2018-08-20T02:51:01.903Z,6.03
2018-08-20T02:53:33.071Z,5.90
2018-08-20T02:56:05.338Z,6.50
2018-08-20T02:58:33.429Z,6.17
2018-08-20T03:01:13.077Z,6.40
2018-08-20T03:03:49.587Z,5.70
2018-08-20T03:06:23.326Z,5.97
2018-08-20T03:08:51.407Z,5.67
2018-08-20T03:11:26.095Z,7.30
2018-08-20T03:13:54.122Z,6.27
2018-08-20T03:16:26.612Z,5.93
2018-08-20T03:19:00.630Z,6.10
2018-08-20T03:21:28.735Z,5.87
2018-08-20T03:24:04.008Z,6.07
2018-08-20T03:26:42.514Z,6.00
2018-08-20T03:29:16.989Z,6.07
2018-08-20T03:31:48.094Z,5.33
2018-08-20T03:34:18.374Z,5.80
2018-08-20T03:36:46.469Z,5.43
2018-08-20T03:39:21.012Z,5.90
2018-08-20T03:41:53.412Z,6.10
2018-08-20T03:44:26.359Z,5.90
2018-08-20T03:46:54.651Z,5.90
2018-08-20T03:49:22.775Z,5.60
2018-08-20T03:51:57.035Z,6.20
2018-08-20T03:54:30.125Z,5.40
2018-08-20T03:56:58.170Z,5.40
2018-08-20T03:59:36.670Z,5.07
2018-08-20T04:02:12.521Z,5.27
2018-08-20T04:04:40.738Z,5.53
2018-08-20T04:07:13.926Z,5.63
2018-08-20T04:09:49.468Z,5.70
2018-08-20T04:12:23.998Z,5.73
2018-08-20T04:14:54.810Z,6.27
2018-08-20T04:17:22.878Z,5.37
2018-08-20T04:19:57.427Z,5.20
2018-08-20T04:22:29.778Z,5.93
2018-08-20T04:25:04.350Z,5.90
2018-08-20T04:27:36.410Z,5.00
2018-08-20T04:30:08.000Z,4.97
2018-08-20T04:32:38.899Z,5.27
2018-08-20T04:35:07.121Z,4.60
2018-08-20T04:37:38.160Z,4.77
2018-08-20T04:40:08.761Z,5.00
2018-08-20T04:42:42.013Z,4.80
2018-08-20T04:45:10.162Z,4.60
2018-08-20T04:47:47.826Z,4.90
2018-08-20T04:50:16.129Z,4.70
2018-08-20T04:52:48.988Z,5.23
2018-08-20T04:55:20.056Z,5.03
2018-08-20T04:57:48.162Z,4.67
2018-08-20T05:00:19.052Z,5.50
2018-08-20T05:02:47.255Z,4.83
2018-08-20T05:05:18.105Z,5.10
2018-08-20T05:07:46.256Z,5.50
2018-08-20T05:10:19.276Z,5.17
2018-08-20T05:12:47.322Z,4.80
2018-08-20T05:15:21.721Z,5.03
2018-08-20T05:17:54.746Z,5.30
2018-08-20T05:20:22.999Z,4.23
2018-08-20T05:22:51.085Z,4.80
2018-08-20T05:25:21.919Z,4.87
2018-08-20T05:27:49.978Z,5.00
2018-08-20T05:30:22.450Z,5.53
2018-08-20T05:32:55.609Z,5.97
2018-08-20T05:35:23.719Z,5.67
2018-08-20T05:37:56.066Z,6.10
2018-08-20T05:40:32.059Z,5.73
2018-08-20T05:43:02.326Z,6.20
2018-08-20T05:45:30.545Z,6.37
2018-08-20T05:48:04.771Z,6.30
2018-08-20T05:50:35.811Z,6.00
2018-08-20T05:53:03.947Z,6.17
2018-08-20T05:55:38.591Z,6.00
2018-08-20T05:58:06.647Z,5.63
2018-08-20T06:00:37.522Z,4.80
2018-08-20T06:03:05.755Z,5.13
2018-08-20T06:05:40.043Z,5.17
2018-08-20T06:08:13.280Z,4.63
2018-08-20T06:10:43.784Z,4.93
2018-08-20T06:13:21.995Z,5.37
2018-08-20T06:15:50.213Z,5.27
2018-08-20T06:18:22.280Z,5.43
2018-08-20T06:21:03.317Z,5.20
2018-08-20T06:23:31.421Z,5.80
2018-08-20T06:26:07.880Z,6.17
2018-08-20T06:28:40.925Z,6.00
2018-08-20T06:31:09.561Z,6.63
2018-08-20T06:33:39.862Z,6.00
2018-08-20T06:36:07.937Z,7.03
2018-08-20T06:38:45.711Z,7.37
2018-08-20T06:41:14.463Z,7.67
2018-08-20T06:43:46.799Z,7.43
2018-08-20T06:46:27.393Z,6.50
2018-08-20T06:48:55.647Z,7.73
2018-08-20T06:51:25.758Z,7.70
2018-08-20T06:53:53.930Z,8.10
2018-08-20T06:56:24.359Z,8.60
2018-08-20T06:58:52.598Z,8.60
2018-08-20T07:01:25.141Z,8.67
2018-08-20T07:03:58.513Z,8.97
2018-08-20T07:06:29.556Z,8.60
2018-08-20T07:09:00.379Z,9.30
2018-08-20T07:11:28.470Z,9.47
2018-08-20T07:14:00.764Z,9.87
2018-08-20T07:16:30.888Z,9.63
2018-08-20T07:18:59.817Z,10.23
2018-08-20T07:21:31.605Z,11.67
2018-08-20T07:23:59.696Z,9.83
2018-08-20T07:26:30.098Z,10.17
2018-08-20T07:28:58.149Z,10.23
2018-08-20T07:31:26.249Z,10.20
2018-08-20T07:34:09.147Z,10.80
2018-08-20T07:36:37.285Z,10.60
2018-08-20T07:39:09.658Z,10.77
2018-08-20T07:41:40.955Z,11.13
2018-08-20T07:44:11.970Z,11.67
2018-08-20T07:46:40.257Z,11.10
2018-08-20T07:49:12.847Z,10.50
2018-08-20T07:51:40.988Z,11.07
2018-08-20T07:54:10.065Z,10.70
2018-08-20T07:56:41.247Z,10.73
2018-08-20T07:59:09.324Z,12.33
2018-08-20T08:01:46.726Z,11.27
2018-08-20T08:04:19.850Z,12.07
2018-08-20T08:06:48.099Z,11.47
2018-08-20T08:09:16.214Z,11.80
2018-08-20T08:11:46.330Z,12.00
2018-08-20T08:14:19.487Z,11.87
2018-08-20T08:16:49.527Z,11.77
2018-08-20T08:19:29.238Z,11.57
2018-08-20T08:22:02.379Z,11.57
2018-08-20T08:24:32.629Z,11.80
2018-08-20T08:27:01.007Z,11.20
2018-08-20T08:29:29.306Z,11.17
2018-08-20T08:31:57.358Z,11.80
2018-08-20T08:34:28.552Z,12.17
2018-08-20T08:36:56.657Z,10.63
2018-08-20T08:39:27.634Z,11.97
2018-08-20T08:41:57.835Z,11.67
2018-08-20T08:44:25.888Z,12.13
2018-08-20T08:47:01.168Z,11.40
2018-08-20T08:49:40.902Z,10.70
2018-08-20T08:52:13.033Z,11.20
2018-08-20T08:54:42.146Z,11.00
2018-08-20T08:57:10.246Z,11.07
2018-08-20T08:59:48.326Z,10.70
2018-08-20T09:02:19.434Z,10.50
2018-08-20T09:04:48.163Z,10.87
2018-08-20T09:07:18.331Z,10.77
2018-08-20T09:12:26.092Z,11.37
2018-08-20T09:14:57.049Z,10.67
2018-08-20T09:17:25.198Z,11.33
2018-08-20T09:19:53.352Z,11.50
2018-08-20T09:22:26.084Z,10.63
2018-08-20T09:24:58.183Z,11.43
2018-08-20T09:27:31.299Z,11.97
2018-08-20T09:29:59.410Z,10.67
2018-08-20T09:32:32.355Z,10.73
2018-08-20T09:35:00.543Z,10.40
2018-08-20T09:37:38.042Z,10.93
2018-08-20T09:40:06.847Z,11.50
2018-08-20T09:42:35.301Z,10.90
2018-08-20T09:45:03.913Z,10.90
2018-08-20T09:47:34.302Z,10.50
2018-08-20T09:50:02.522Z,10.53
2018-08-20T09:52:30.532Z,9.83
2018-08-20T09:55:03.650Z,10.83
2018-08-20T09:57:31.701Z,10.63
2018-08-20T10:00:06.146Z,9.73
2018-08-20T10:02:39.098Z,11.23
2018-08-20T10:05:07.417Z,9.90
2018-08-20T10:07:35.670Z,9.77
2018-08-20T10:10:06.616Z,9.57
2018-08-20T10:12:35.226Z,9.87
2018-08-20T10:15:13.335Z,9.50
2018-08-20T10:17:41.724Z,9.23
2018-08-20T10:20:15.363Z,9.30
2018-08-20T10:22:43.762Z,8.67
2018-08-20T10:25:11.958Z,7.83
2018-08-20T10:27:46.290Z,8.60
2018-08-20T10:30:20.674Z,7.33
2018-08-20T10:32:51.514Z,7.60
2018-08-20T10:35:19.624Z,7.70
2018-08-20T10:37:50.724Z,6.53
2018-08-20T10:40:18.711Z,7.63
2018-08-20T10:42:49.722Z,7.10
2018-08-20T10:45:19.098Z,7.53
2018-08-20T10:47:50.495Z,7.33
2018-08-20T10:50:21.969Z,6.53
2018-08-20T10:52:58.869Z,6.73
2018-08-20T10:55:33.126Z,5.90
2018-08-20T10:58:01.488Z,6.43
2018-08-20T11:00:29.601Z,5.30
2018-08-20T11:03:04.003Z,6.17
2018-08-20T11:05:39.368Z,5.23
2018-08-20T11:08:14.762Z,5.80
2018-08-20T11:10:45.751Z,5.90
2018-08-20T11:13:13.896Z,6.53
2018-08-20T11:15:46.831Z,5.83
2018-08-20T11:18:17.973Z,6.17
2018-08-20T11:20:55.587Z,5.47
2018-08-20T11:23:23.675Z,5.67
2018-08-20T11:25:56.726Z,5.93
2018-08-20T11:28:26.911Z,5.00
2018-08-20T11:30:54.978Z,4.87
2018-08-20T11:33:25.872Z,4.70
2018-08-20T11:35:53.982Z,5.80
2018-08-20T11:38:27.358Z,5.53
2018-08-20T11:40:55.683Z,4.90
2018-08-20T11:43:25.692Z,5.20
2018-08-20T11:45:58.101Z,4.80
2018-08-20T11:48:41.479Z,4.20
2018-08-20T11:51:13.888Z,4.57
2018-08-20T11:53:47.170Z,4.57
2018-08-20T11:56:22.765Z,4.67
2018-08-20T11:58:57.871Z,5.83
2018-08-20T12:01:37.644Z,5.50
2018-08-20T12:04:09.890Z,5.47
2018-08-20T12:06:43.285Z,5.30
2018-08-20T12:09:15.646Z,5.40
2018-08-20T12:11:46.720Z,5.03
2018-08-20T12:14:14.914Z,4.50
2018-08-20T12:16:49.411Z,5.23
2018-08-20T12:19:24.578Z,3.83
2018-08-20T12:21:58.990Z,4.33
2018-08-20T12:24:38.866Z,4.67
2018-08-20T12:27:07.230Z,4.53
2018-08-20T12:29:39.530Z,5.70
2018-08-20T12:32:14.346Z,6.03
2018-08-20T12:34:42.431Z,5.27
2018-08-20T12:37:24.330Z,5.97
2018-08-20T12:39:52.574Z,6.00
2018-08-20T12:42:25.013Z,5.17
2018-08-20T12:44:53.116Z,4.67
2018-08-20T12:47:32.994Z,5.13
2018-08-20T12:50:01.132Z,4.57
2018-08-20T12:52:32.034Z,4.60
2018-08-20T12:55:00.223Z,4.73
2018-08-20T12:57:34.869Z,4.70
2018-08-20T13:00:03.039Z,4.80
2018-08-20T13:02:42.851Z,4.13
2018-08-20T13:05:10.993Z,4.83
2018-08-20T13:07:52.750Z,4.50
2018-08-20T13:10:20.872Z,3.97
2018-08-20T13:12:54.729Z,4.30
2018-08-20T13:15:23.025Z,3.47
2018-08-20T13:17:51.182Z,4.53
2018-08-20T13:20:31.086Z,3.80
2018-08-20T13:22:59.234Z,3.40
2018-08-20T13:25:30.241Z,3.77
2018-08-20T13:27:58.427Z,2.83
2018-08-20T13:30:26.552Z,3.10
2018-08-20T13:32:57.353Z,3.33
2018-08-20T13:35:28.439Z,3.60
2018-08-20T13:38:01.882Z,3.43
2018-08-20T13:40:32.909Z,3.50
2018-08-20T13:43:01.050Z,3.27
2018-08-20T13:45:32.041Z,3.47
2018-08-20T13:48:00.094Z,3.50
2018-08-20T13:50:35.220Z,2.80
2018-08-20T13:53:09.987Z,3.10
2018-08-20T13:55:42.942Z,2.20
2018-08-20T13:58:11.327Z,2.60
2018-08-20T14:00:39.395Z,2.53
2018-08-20T14:03:15.636Z,2.57
2018-08-20T14:05:47.825Z,2.80
2018-08-20T14:08:16.050Z,2.67
2018-08-20T14:10:44.194Z,2.83
2018-08-20T14:13:15.217Z,2.80
2018-08-20T14:15:43.372Z,2.63
2018-08-20T14:18:18.099Z,2.83
2018-08-20T14:21:03.070Z,2.77
2018-08-20T14:23:34.282Z,3.00
2018-08-20T14:26:08.462Z,2.90
2018-08-20T14:28:36.614Z,2.70
2018-08-20T14:31:08.727Z,2.70
2018-08-20T14:33:38.978Z,2.50
2018-08-20T14:36:11.375Z,2.73
2018-08-20T14:38:39.727Z,2.60
2018-08-20T14:41:07.849Z,2.47
2018-08-20T14:43:42.062Z,3.00
2018-08-20T14:46:17.851Z,2.70
2018-08-20T14:48:53.478Z,2.90
2018-08-20T14:51:21.910Z,2.70
2018-08-20T14:53:49.991Z,2.67
2018-08-20T14:56:22.249Z,2.60
2018-08-20T14:58:53.293Z,2.40
2018-08-20T15:01:24.361Z,3.10
2018-08-20T15:04:01.242Z,2.77
2018-08-20T15:06:29.270Z,3.30
2018-08-20T15:09:09.176Z,2.60
2018-08-20T15:11:37.183Z,2.50
2018-08-20T15:14:08.712Z,2.97
2018-08-20T15:16:41.080Z,2.70
2018-08-20T15:19:11.212Z,2.60
2018-08-20T15:21:39.337Z,2.30
2018-08-20T15:24:14.663Z,2.13
2018-08-20T15:26:47.824Z,2.13
2018-08-20T15:29:21.162Z,1.83
2018-08-20T15:31:49.496Z,1.87
2018-08-20T15:34:17.604Z,1.83
2018-08-20T15:36:52.949Z,1.93
2018-08-20T15:39:25.131Z,1.63
2018-08-20T15:41:53.238Z,2.10
2018-08-20T15:44:24.091Z,1.93
2018-08-20T15:46:54.328Z,1.73
2018-08-20T15:49:22.391Z,1.90
2018-08-20T15:51:54.769Z,1.90
2018-08-20T15:54:30.744Z,1.30
2018-08-20T15:56:58.782Z,1.73
2018-08-20T15:59:35.049Z,1.77
2018-08-20T16:02:17.319Z,1.50
2018-08-20T16:04:47.519Z,1.30
2018-08-20T16:07:15.661Z,1.43
2018-08-20T16:09:50.363Z,1.17
2018-08-20T16:12:18.471Z,1.40
2018-08-20T16:14:49.397Z,1.40
2018-08-20T16:17:17.556Z,1.17
2018-08-20T16:19:48.547Z,1.20
2018-08-20T16:22:16.590Z,1.80
2018-08-20T16:24:51.175Z,1.70
2018-08-20T16:27:22.104Z,1.30
2018-08-20T16:29:52.502Z,1.03
2018-08-20T16:32:22.707Z,1.20
2018-08-20T16:34:50.965Z,1.37
2018-08-20T16:37:24.001Z,1.57
2018-08-20T16:39:54.511Z,1.40
2018-08-20T16:42:22.662Z,1.50
2018-08-20T16:44:50.805Z,1.37
2018-08-20T16:47:25.081Z,1.40
2018-08-20T16:50:06.609Z,1.77
2018-08-20T16:52:37.575Z,1.70
2018-08-20T16:55:17.759Z,1.40
2018-08-20T16:57:50.183Z,1.40
2018-08-20T17:00:22.406Z,1.20
2018-08-20T17:02:54.569Z,1.43
2018-08-20T17:05:29.489Z,1.40
2018-08-20T17:08:12.152Z,1.10
2018-08-20T17:10:40.267Z,1.30
2018-08-20T17:13:19.937Z,1.43
2018-08-20T17:15:47.965Z,1.60
2018-08-20T17:18:22.580Z,1.63
2018-08-20T17:20:59.119Z,1.40
2018-08-20T17:23:30.130Z,1.50
2018-08-20T17:26:00.215Z,1.50
2018-08-20T17:28:28.348Z,3.07
2018-08-20T17:30:58.846Z,1.93
2018-08-20T17:33:32.317Z,1.47
2018-08-20T17:36:12.161Z,1.50
2018-08-20T17:38:40.230Z,1.40
2018-08-20T17:41:08.437Z,2.00
2018-08-20T17:43:36.604Z,1.70
2018-08-20T17:46:04.909Z,1.60
2018-08-20T17:48:36.133Z,1.90
2018-08-20T17:51:08.331Z,1.50
2018-08-20T17:53:47.629Z,1.53
2018-08-20T17:56:15.652Z,1.60
2018-08-20T17:58:48.183Z,1.80
2018-08-20T18:01:22.086Z,1.47
2018-08-20T18:03:50.357Z,1.60
2018-08-20T18:06:18.414Z,1.93
2018-08-20T18:08:53.743Z,1.60
2018-08-20T18:11:29.849Z,1.60
2018-08-20T18:13:57.888Z,1.60
2018-08-20T18:16:32.294Z,1.50
2018-08-20T18:19:07.843Z,1.50
2018-08-20T18:24:19.907Z,1.50
2018-08-20T18:26:50.925Z,1.30
2018-08-20T18:29:22.146Z,1.67
2018-08-20T18:32:04.244Z,1.47
2018-08-20T18:34:32.361Z,1.20
2018-08-20T18:37:05.329Z,1.40
2018-08-20T18:39:33.497Z,1.10
2018-08-20T18:42:13.352Z,1.20
2018-08-20T18:44:41.701Z,1.30
2018-08-20T18:47:15.559Z,1.23
2018-08-20T18:49:50.080Z,1.30
2018-08-20T18:52:22.122Z,1.20
2018-08-20T18:54:53.531Z,1.23
2018-08-20T18:57:25.185Z,1.50
2018-08-20T18:59:56.550Z,1.50
2018-08-20T19:03:02.755Z,1.20
2018-08-20T19:06:07.873Z,1.50
2018-08-20T19:08:42.076Z,1.37
2018-08-20T19:11:10.760Z,1.20
2018-08-20T19:13:42.612Z,1.03
2018-08-20T19:16:26.657Z,1.00
2018-08-20T19:18:56.879Z,1.23
2018-08-20T19:21:26.855Z,1.10
2018-08-20T19:23:59.481Z,1.07
2018-08-20T19:26:30.535Z,0.67
2018-08-20T19:29:05.987Z,1.03
2018-08-20T19:31:36.995Z,1.30
2018-08-20T19:34:10.204Z,1.30
2018-08-20T19:36:41.012Z,1.13
2018-08-20T19:39:09.132Z,1.07
2018-08-20T19:41:39.287Z,1.20
2018-08-20T19:44:07.517Z,1.30
2018-08-20T19:46:37.977Z,0.93
2018-08-20T19:49:09.793Z,0.90
2018-08-20T19:51:42.531Z,1.10
2018-08-20T19:54:13.105Z,1.47
2018-08-20T19:56:44.335Z,1.00
2018-08-20T19:59:25.973Z,1.20
2018-08-20T20:01:57.041Z,1.17
2018-08-20T20:04:27.115Z,1.10
2018-08-20T20:06:58.091Z,1.10
2018-08-20T20:09:35.327Z,1.00
2018-08-20T20:12:03.361Z,1.10
2018-08-20T20:14:44.123Z,1.07
2018-08-20T20:17:12.330Z,1.20
2018-08-20T20:19:46.706Z,1.20
2018-08-20T20:22:19.715Z,1.30
2018-08-20T20:24:50.046Z,1.10
2018-08-20T20:27:18.118Z,1.10
2018-08-20T20:29:52.666Z,1.40
2018-08-20T20:32:24.927Z,1.13
2018-08-20T20:34:55.815Z,1.00
2018-08-20T20:37:23.923Z,1.10
2018-08-20T20:39:59.548Z,1.13
2018-08-20T20:42:30.144Z,1.20
2018-08-20T20:44:58.403Z,0.80
2018-08-20T20:47:29.347Z,1.10
2018-08-20T20:49:57.432Z,1.17
2018-08-20T20:52:30.424Z,1.10
2018-08-20T20:55:00.594Z,1.03
2018-08-20T20:57:28.745Z,1.10
2018-08-20T21:00:03.023Z,1.10
2018-08-20T21:02:34.005Z,1.20
2018-08-20T21:05:09.666Z,0.90
2018-08-20T21:07:38.256Z,1.10
2018-08-20T21:10:12.707Z,1.10
2018-08-20T21:12:43.742Z,1.40
2018-08-20T21:15:14.710Z,1.10
2018-08-20T21:17:54.381Z,1.10
2018-08-20T21:20:28.639Z,1.30
2018-08-20T21:23:00.739Z,1.17
2018-08-20T21:25:29.026Z,1.37
2018-08-20T21:28:01.494Z,1.20
2018-08-20T21:33:10.140Z,1.23
2018-08-20T21:35:42.566Z,1.00
2018-08-20T21:38:22.474Z,1.50
2018-08-20T21:40:50.560Z,1.33
2018-08-20T21:43:22.906Z,1.20
2018-08-20T21:45:57.185Z,1.50
2018-08-20T21:48:35.483Z,1.10
2018-08-20T21:51:13.007Z,1.30
2018-08-20T21:53:44.337Z,1.47
2018-08-20T21:56:22.465Z,1.37
2018-08-20T21:58:50.594Z,1.20
2018-08-20T22:01:21.579Z,1.40
2018-08-20T22:03:49.950Z,1.40
2018-08-20T22:06:18.171Z,1.50
2018-08-20T22:08:57.905Z,1.50
2018-08-20T22:11:26.066Z,1.67
2018-08-20T22:14:00.716Z,1.90
2018-08-20T22:16:33.343Z,1.30
2018-08-20T22:19:01.706Z,1.40
2018-08-20T22:21:29.909Z,1.50
2018-08-20T22:24:03.753Z,1.47
2018-08-20T22:26:31.960Z,1.47
2018-08-20T22:29:01.964Z,1.80
2018-08-20T22:31:33.188Z,1.90
2018-08-20T22:36:38.648Z,2.00
2018-08-20T22:39:12.662Z,1.60
2018-08-20T22:41:40.879Z,1.57
2018-08-20T22:44:09.005Z,1.67
2018-08-20T22:46:42.207Z,1.70
2018-08-20T22:49:10.575Z,1.90
2018-08-20T22:51:38.826Z,1.87
2018-08-20T22:54:09.965Z,1.87
2018-08-20T22:56:44.247Z,2.00
2018-08-20T22:59:14.350Z,2.17
2018-08-20T23:01:42.394Z,2.57
2018-08-20T23:04:16.750Z,2.70
2018-08-20T23:06:50.011Z,2.63
2018-08-20T23:09:30.086Z,2.30
2018-08-20T23:11:58.121Z,2.60
2018-08-20T23:14:32.247Z,2.20
2018-08-20T23:17:00.413Z,2.17
2018-08-20T23:19:37.297Z,3.23
2018-08-20T23:22:07.398Z,2.20
2018-08-20T23:24:42.579Z,2.67
2018-08-20T23:27:14.809Z,3.40
2018-08-20T23:29:48.115Z,3.73
2018-08-20T23:32:18.413Z,3.57
2018-08-20T23:34:46.576Z,3.03
2018-08-20T23:37:18.899Z,2.80
2018-08-20T23:40:00.626Z,2.60
2018-08-20T23:42:28.788Z,2.73
2018-08-20T23:45:04.089Z,3.20
2018-08-20T23:47:35.243Z,3.73
2018-08-20T23:50:03.679Z,3.97
2018-08-20T23:52:32.021Z,4.70
2018-08-20T23:55:00.138Z,4.10
2018-08-20T23:57:34.071Z,4.50
